createdAt,value
2016-06-09T00:00:47.532Z,961.83
2016-06-09T00:01:47.552Z,961.82
2016-06-09T00:02:47.555Z,961.81
2016-06-09T00:03:47.589Z,961.76
2016-06-09T00:04:47.576Z,961.81
2016-06-09T00:05:47.595Z,961.79
2016-06-09T00:06:47.598Z,961.78
2016-06-09T00:07:47.617Z,961.78
2016-06-09T00:08:47.621Z,961.83
2016-06-09T00:09:47.623Z,961.78
2016-06-09T00:10:47.642Z,961.82
2016-06-09T00:11:47.660Z,961.78
2016-06-09T00:12:47.663Z,961.78
2016-06-09T00:13:47.682Z,961.75
2016-06-09T00:14:47.685Z,961.79
2016-06-09T00:15:47.688Z,961.76
2016-06-09T00:16:47.706Z,961.78
2016-06-09T00:17:47.726Z,961.75
2016-06-09T00:18:47.728Z,961.73
2016-06-09T00:19:47.747Z,961.69
2016-06-09T00:20:47.750Z,961.74
2016-06-09T00:21:47.769Z,961.75
2016-06-09T00:22:47.772Z,961.73
2016-06-09T00:23:47.792Z,961.69
2016-06-09T00:24:47.794Z,961.73
2016-06-09T00:25:47.812Z,961.7
2016-06-09T00:26:47.832Z,961.7
2016-06-09T00:27:47.835Z,961.69
2016-06-09T00:28:47.838Z,961.67
2016-06-09T00:29:47.856Z,961.67
2016-06-09T00:30:47.860Z,961.72
2016-06-09T00:31:47.878Z,961.73
2016-06-09T00:32:47.881Z,961.67
2016-06-09T00:33:48.087Z,961.66
2016-06-09T00:34:47.918Z,961.67
2016-06-09T00:35:47.922Z,961.69
2016-06-09T00:36:47.940Z,961.67
2016-06-09T00:37:47.943Z,961.68
2016-06-09T00:38:47.963Z,961.69
2016-06-09T00:39:47.965Z,961.66
2016-06-09T00:40:47.983Z,961.67
2016-06-09T00:41:47.987Z,961.65
2016-06-09T00:42:48.006Z,961.66
2016-06-09T00:43:48.008Z,961.61
2016-06-09T00:44:48.028Z,961.62
2016-06-09T00:45:48.030Z,961.63
2016-06-09T00:46:48.034Z,961.62
2016-06-09T00:47:48.052Z,961.65
2016-06-09T00:48:48.352Z,961.62
2016-06-09T00:49:48.074Z,961.62
2016-06-09T00:50:48.092Z,961.64
2016-06-09T00:51:48.096Z,961.66
2016-06-09T00:52:48.098Z,961.64
2016-06-09T00:53:48.118Z,961.63
2016-06-09T00:54:48.137Z,961.65
2016-06-09T00:55:48.139Z,961.61
2016-06-09T00:56:48.157Z,961.62
2016-06-09T00:57:48.161Z,961.61
2016-06-09T00:58:48.180Z,961.63
2016-06-09T00:59:48.199Z,961.59
2016-06-09T01:00:48.202Z,961.58
2016-06-09T01:01:48.220Z,961.59
2016-06-09T01:02:48.223Z,961.57
2016-06-09T01:03:48.226Z,961.56
2016-06-09T01:04:48.245Z,961.57
2016-06-09T01:05:48.249Z,961.56
2016-06-09T01:06:48.266Z,961.53
2016-06-09T01:07:48.285Z,961.53
2016-06-09T01:08:48.288Z,961.52
2016-06-09T01:09:48.292Z,961.47
2016-06-09T01:10:48.311Z,961.51
2016-06-09T01:11:48.314Z,961.46
2016-06-09T01:12:48.332Z,961.47
2016-06-09T01:13:48.351Z,961.46
2016-06-09T01:14:48.354Z,961.46
2016-06-09T01:15:48.373Z,961.44
2016-06-09T01:16:48.376Z,961.42
2016-06-09T01:17:48.379Z,961.4
2016-06-09T01:18:48.398Z,961.43
2016-06-09T01:19:48.416Z,961.44
2016-06-09T01:20:48.419Z,961.39
2016-06-09T01:21:48.438Z,961.39
2016-06-09T01:22:48.441Z,961.4
2016-06-09T01:23:48.459Z,961.42
2016-06-09T01:24:48.463Z,961.41
2016-06-09T01:25:48.482Z,961.44
2016-06-09T01:26:48.485Z,961.43
2016-06-09T01:27:48.502Z,961.4
2016-06-09T01:28:48.506Z,961.43
2016-06-09T01:29:48.526Z,961.43
2016-06-09T01:30:48.528Z,961.48
2016-06-09T01:31:48.547Z,961.41
2016-06-09T01:32:48.565Z,961.45
2016-06-09T01:33:48.569Z,961.43
2016-06-09T01:34:48.571Z,961.43
2016-06-09T01:35:48.590Z,961.43
2016-06-09T01:36:48.594Z,961.39
2016-06-09T01:37:48.611Z,961.4
2016-06-09T01:38:48.615Z,961.4
2016-06-09T01:39:48.634Z,961.37
2016-06-09T01:40:48.637Z,961.37
2016-06-09T01:41:48.656Z,961.39
2016-06-09T01:42:48.659Z,961.34
2016-06-09T01:43:48.677Z,961.38
2016-06-09T01:44:48.680Z,961.37
2016-06-09T01:45:48.700Z,961.35
2016-06-09T01:46:48.718Z,961.37
2016-06-09T01:47:48.722Z,961.37
2016-06-09T01:48:49.178Z,961.37
2016-06-09T01:49:48.743Z,961.38
2016-06-09T01:50:48.746Z,961.36
2016-06-09T01:51:48.765Z,961.37
2016-06-09T01:52:48.783Z,961.33
2016-06-09T01:53:48.786Z,961.34
2016-06-09T01:54:48.788Z,961.32
2016-06-09T01:55:48.808Z,961.35
2016-06-09T01:56:48.827Z,961.33
2016-06-09T01:57:48.830Z,961.32
2016-06-09T01:58:48.848Z,961.33
2016-06-09T01:59:48.852Z,961.36
2016-06-09T02:00:48.870Z,961.34
2016-06-09T02:01:48.873Z,961.36
2016-06-09T02:02:48.893Z,961.33
2016-06-09T02:03:48.896Z,961.33
2016-06-09T02:04:48.914Z,961.34
2016-06-09T02:05:48.917Z,961.31
2016-06-09T02:06:48.936Z,961.35
2016-06-09T02:07:48.939Z,961.32
2016-06-09T02:08:48.957Z,961.34
2016-06-09T02:09:48.960Z,961.4
2016-06-09T02:10:48.979Z,961.34
2016-06-09T02:11:48.982Z,961.31
2016-06-09T02:12:49.001Z,961.33
2016-06-09T02:13:49.005Z,961.31
2016-06-09T02:14:49.022Z,961.34
2016-06-09T02:15:49.026Z,961.35
2016-06-09T02:16:49.045Z,961.34
2016-06-09T02:17:49.048Z,961.31
2016-06-09T02:18:49.066Z,961.31
2016-06-09T02:19:49.070Z,961.33
2016-06-09T02:20:49.088Z,961.32
2016-06-09T02:21:49.090Z,961.3
2016-06-09T02:22:49.125Z,961.29
2016-06-09T02:23:49.113Z,961.29
2016-06-09T02:24:49.131Z,961.27
2016-06-09T02:25:49.134Z,961.28
2016-06-09T02:26:49.153Z,961.27
2016-06-09T02:27:49.156Z,961.28
2016-06-09T02:28:49.176Z,961.27
2016-06-09T02:29:49.179Z,961.27
2016-06-09T02:30:49.197Z,961.22
2016-06-09T02:31:49.200Z,961.27
2016-06-09T02:32:49.219Z,961.24
2016-06-09T02:33:49.222Z,961.28
2016-06-09T02:34:49.241Z,961.21
2016-06-09T02:35:49.259Z,961.23
2016-06-09T02:36:49.262Z,961.23
2016-06-09T02:37:49.265Z,961.22
2016-06-09T02:38:49.285Z,961.23
2016-06-09T02:39:49.302Z,961.25
2016-06-09T02:40:49.305Z,961.24
2016-06-09T02:41:49.309Z,961.18
2016-06-09T02:42:49.328Z,961.21
2016-06-09T02:43:49.330Z,961.2
2016-06-09T02:44:49.350Z,961.21
2016-06-09T02:45:49.367Z,961.22
2016-06-09T02:46:49.371Z,961.21
2016-06-09T02:47:49.390Z,961.25
2016-06-09T02:48:49.392Z,961.25
2016-06-09T02:49:49.412Z,961.24
2016-06-09T02:50:49.415Z,961.24
2016-06-09T02:51:49.433Z,961.23
2016-06-09T02:52:49.436Z,961.23
2016-06-09T02:53:49.455Z,961.21
2016-06-09T02:54:49.458Z,961.19
2016-06-09T02:55:49.477Z,961.19
2016-06-09T02:56:49.479Z,961.17
2016-06-09T02:57:49.498Z,961.16
2016-06-09T02:58:49.502Z,961.22
2016-06-09T02:59:49.521Z,961.19
2016-06-09T03:00:49.523Z,961.23
2016-06-09T03:01:49.542Z,961.2
2016-06-09T03:02:49.545Z,961.23
2016-06-09T03:03:49.564Z,961.23
2016-06-09T03:04:49.567Z,961.23
2016-06-09T03:05:49.587Z,961.24
2016-06-09T03:06:49.589Z,961.2
2016-06-09T03:07:49.607Z,961.23
2016-06-09T03:08:49.611Z,961.23
2016-06-09T03:09:49.630Z,961.23
2016-06-09T03:10:49.632Z,961.23
2016-06-09T03:11:49.651Z,961.23
2016-06-09T03:12:49.654Z,961.2
2016-06-09T03:13:49.673Z,961.21
2016-06-09T03:14:49.675Z,961.21
2016-06-09T03:15:49.695Z,961.27
2016-06-09T03:16:49.698Z,961.26
2016-06-09T03:17:49.716Z,961.25
2016-06-09T03:18:49.719Z,961.22
2016-06-09T03:19:49.738Z,961.22
2016-06-09T03:20:49.741Z,961.29
2016-06-09T03:21:49.760Z,961.24
2016-06-09T03:22:49.763Z,961.26
2016-06-09T03:23:49.781Z,961.24
2016-06-09T03:24:49.800Z,961.26
2016-06-09T03:25:49.804Z,961.26
2016-06-09T03:26:49.807Z,961.22
2016-06-09T03:27:49.824Z,961.24
2016-06-09T03:28:49.828Z,961.24
2016-06-09T03:29:49.847Z,961.27
2016-06-09T03:30:49.850Z,961.23
2016-06-09T03:31:49.869Z,961.25
2016-06-09T03:32:49.873Z,961.26
2016-06-09T03:33:49.890Z,961.28
2016-06-09T03:34:49.909Z,961.26
2016-06-09T03:35:49.913Z,961.26
2016-06-09T03:36:49.932Z,961.26
2016-06-09T03:37:49.934Z,961.29
2016-06-09T03:38:49.953Z,961.28
2016-06-09T03:39:49.956Z,961.29
2016-06-09T03:40:49.975Z,961.27
2016-06-09T03:41:49.977Z,961.28
2016-06-09T03:42:49.996Z,961.29
2016-06-09T03:43:49.999Z,961.31
2016-06-09T03:44:50.002Z,961.33
2016-06-09T03:45:50.021Z,961.34
2016-06-09T03:46:50.024Z,961.32
2016-06-09T03:47:50.043Z,961.35
2016-06-09T03:48:50.280Z,961.32
2016-06-09T03:49:50.487Z,961.36
2016-06-09T03:50:50.083Z,961.34
2016-06-09T03:51:50.086Z,961.33
2016-06-09T03:52:50.106Z,961.38
2016-06-09T03:53:50.109Z,961.34
2016-06-09T03:54:50.111Z,961.36
2016-06-09T03:55:50.130Z,961.37
2016-06-09T03:56:50.149Z,961.35
2016-06-09T03:57:50.152Z,961.3
2016-06-09T03:58:50.170Z,961.34
2016-06-09T03:59:50.173Z,961.34
2016-06-09T04:00:50.192Z,961.34
2016-06-09T04:01:50.195Z,961.31
2016-06-09T04:02:50.215Z,961.34
2016-06-09T04:03:50.218Z,961.35
2016-06-09T04:04:50.735Z,961.34
2016-06-09T04:05:50.239Z,961.37
2016-06-09T04:06:50.258Z,961.39
2016-06-09T04:07:50.261Z,961.35
2016-06-09T04:08:50.279Z,961.34
2016-06-09T04:09:50.283Z,961.33
2016-06-09T04:10:50.301Z,961.35
2016-06-09T04:11:50.304Z,961.38
2016-06-09T04:12:50.323Z,961.35
2016-06-09T04:13:50.326Z,961.33
2016-06-09T04:14:50.344Z,961.35
2016-06-09T04:15:50.348Z,961.34
2016-06-09T04:16:50.367Z,961.34
2016-06-09T04:17:50.369Z,961.33
2016-06-09T04:18:50.388Z,961.37
2016-06-09T04:19:50.392Z,961.34
2016-06-09T04:20:50.410Z,961.35
2016-06-09T04:21:50.412Z,961.34
2016-06-09T04:22:50.432Z,961.3
2016-06-09T04:23:50.435Z,961.31
2016-06-09T04:24:50.454Z,961.31
2016-06-09T04:25:50.457Z,961.27
2016-06-09T04:26:50.475Z,961.28
2016-06-09T04:27:50.494Z,961.27
2016-06-09T04:28:50.497Z,961.28
2016-06-09T04:29:50.501Z,961.3
2016-06-09T04:30:50.519Z,961.34
2016-06-09T04:31:50.522Z,961.3
2016-06-09T04:32:50.540Z,961.3
2016-06-09T04:33:50.544Z,961.31
2016-06-09T04:34:50.844Z,961.29
2016-06-09T04:35:50.580Z,961.3
2016-06-09T04:36:50.741Z,961.26
2016-06-09T04:37:50.603Z,961.28
2016-06-09T04:38:50.606Z,961.26
2016-06-09T04:39:50.609Z,961.28
2016-06-09T04:40:50.628Z,961.29
2016-06-09T04:41:50.646Z,961.25
2016-06-09T04:42:50.649Z,961.28
2016-06-09T04:43:50.669Z,961.26
2016-06-09T04:44:50.671Z,961.24
2016-06-09T04:45:50.689Z,961.26
2016-06-09T04:46:50.693Z,961.22
2016-06-09T04:47:50.712Z,961.25
2016-06-09T04:48:50.714Z,961.27
2016-06-09T04:49:50.734Z,961.24
2016-06-09T04:50:50.737Z,961.22
2016-06-09T04:51:50.755Z,961.22
2016-06-09T04:52:50.758Z,961.23
2016-06-09T04:53:50.777Z,961.22
2016-06-09T04:54:50.780Z,961.21
2016-06-09T04:55:50.799Z,961.22
2016-06-09T04:56:50.802Z,961.2
2016-06-09T04:57:50.821Z,961.19
2016-06-09T04:58:50.824Z,961.19
2016-06-09T04:59:50.842Z,961.23
2016-06-09T05:00:50.846Z,961.2
2016-06-09T05:01:50.864Z,961.22
2016-06-09T05:02:50.867Z,961.19
2016-06-09T05:03:50.886Z,961.18
2016-06-09T05:04:50.888Z,961.22
2016-06-09T05:05:50.908Z,961.23
2016-06-09T05:06:50.911Z,961.22
2016-06-09T05:07:50.929Z,961.22
2016-06-09T05:08:50.933Z,961.23
2016-06-09T05:09:50.951Z,961.23
2016-06-09T05:10:50.954Z,961.18
2016-06-09T05:11:50.974Z,961.22
2016-06-09T05:12:50.977Z,961.25
2016-06-09T05:13:50.994Z,961.21
2016-06-09T05:14:51.014Z,961.18
2016-06-09T05:15:51.017Z,961.23
2016-06-09T05:16:51.020Z,961.19
2016-06-09T05:17:51.038Z,961.21
2016-06-09T05:18:51.041Z,961.18
2016-06-09T05:19:51.060Z,961.19
2016-06-09T05:20:51.063Z,961.19
2016-06-09T05:21:51.082Z,961.14
2016-06-09T05:22:51.085Z,961.17
2016-06-09T05:23:51.103Z,961.14
2016-06-09T05:24:51.122Z,961.17
2016-06-09T05:25:51.126Z,961.17
2016-06-09T05:26:51.129Z,961.11
2016-06-09T05:27:51.148Z,961.13
2016-06-09T05:28:51.165Z,961.12
2016-06-09T05:29:51.169Z,961.16
2016-06-09T05:30:51.188Z,961.14
2016-06-09T05:31:51.191Z,961.12
2016-06-09T05:32:51.194Z,961.15
2016-06-09T05:33:51.212Z,961.09
2016-06-09T05:34:51.215Z,961.08
2016-06-09T05:35:51.251Z,961.08
2016-06-09T05:36:51.300Z,961.1
2016-06-09T05:37:51.256Z,961.11
2016-06-09T05:38:51.274Z,961.09
2016-06-09T05:39:51.278Z,961.08
2016-06-09T05:40:51.281Z,961.08
2016-06-09T05:41:51.300Z,961.1
2016-06-09T05:42:51.334Z,961.05
2016-06-09T05:43:51.321Z,961.07
2016-06-09T05:44:51.325Z,961.06
2016-06-09T05:45:51.342Z,961.05
2016-06-09T05:46:51.362Z,961.09
2016-06-09T05:47:51.365Z,961.07
2016-06-09T05:48:51.383Z,961.08
2016-06-09T05:49:51.386Z,961.07
2016-06-09T05:50:51.405Z,961.09
2016-06-09T05:51:51.408Z,961.03
2016-06-09T05:52:51.427Z,961.04
2016-06-09T05:53:51.430Z,961.05
2016-06-09T05:54:51.449Z,961.03
2016-06-09T05:55:51.452Z,961.04
2016-06-09T05:56:51.470Z,961.03
2016-06-09T05:57:51.490Z,961.05
2016-06-09T05:58:51.493Z,961.05
2016-06-09T05:59:51.496Z,961.02
2016-06-09T06:00:51.514Z,961.04
2016-06-09T06:01:51.518Z,961.02
2016-06-09T06:02:51.536Z,961.02
2016-06-09T06:03:51.540Z,961
2016-06-09T06:04:51.807Z,961.07
2016-06-09T06:05:51.560Z,961.04
2016-06-09T06:06:51.579Z,961.01
2016-06-09T06:07:51.598Z,961.01
2016-06-09T06:08:51.601Z,961
2016-06-09T06:09:51.620Z,961.01
2016-06-09T06:10:51.623Z,960.96
2016-06-09T06:11:51.626Z,960.99
2016-06-09T06:12:51.645Z,961.01
2016-06-09T06:13:51.648Z,960.95
2016-06-09T06:14:51.667Z,960.99
2016-06-09T06:15:51.670Z,960.95
2016-06-09T06:16:51.688Z,961.01
2016-06-09T06:17:51.691Z,960.96
2016-06-09T06:18:51.711Z,960.92
2016-06-09T06:19:51.823Z,960.94
2016-06-09T06:20:51.732Z,960.97
2016-06-09T06:21:51.751Z,960.97
2016-06-09T06:22:51.754Z,960.95
2016-06-09T06:23:51.773Z,960.95
2016-06-09T06:24:51.776Z,960.95
2016-06-09T06:25:51.779Z,960.96
2016-06-09T06:26:51.797Z,960.91
2016-06-09T06:27:51.800Z,960.93
2016-06-09T06:28:51.819Z,960.93
2016-06-09T06:29:51.823Z,960.99
2016-06-09T06:30:51.841Z,960.94
2016-06-09T06:31:51.844Z,960.97
2016-06-09T06:32:51.862Z,960.94
2016-06-09T06:33:51.866Z,960.94
2016-06-09T06:34:51.884Z,960.95
2016-06-09T06:35:51.888Z,960.96
2016-06-09T06:36:51.906Z,960.96
2016-06-09T06:37:51.909Z,960.92
2016-06-09T06:38:51.928Z,960.95
2016-06-09T06:39:51.931Z,960.97
2016-06-09T06:40:51.950Z,960.94
2016-06-09T06:41:51.968Z,960.94
2016-06-09T06:42:51.971Z,960.93
2016-06-09T06:43:51.975Z,960.95
2016-06-09T06:44:51.993Z,960.94
2016-06-09T06:45:51.996Z,960.96
2016-06-09T06:46:52.015Z,960.95
2016-06-09T06:47:52.034Z,960.93
2016-06-09T06:48:52.053Z,960.91
2016-06-09T06:49:52.712Z,960.91
2016-06-09T06:50:52.059Z,960.9
2016-06-09T06:51:52.076Z,960.93
2016-06-09T06:52:52.080Z,960.94
2016-06-09T06:53:52.099Z,960.92
2016-06-09T06:54:52.102Z,960.91
2016-06-09T06:55:52.121Z,960.9
2016-06-09T06:56:52.139Z,960.9
2016-06-09T06:57:52.142Z,960.92
2016-06-09T06:58:52.146Z,960.93
2016-06-09T06:59:52.165Z,960.88
2016-06-09T07:00:52.167Z,960.95
2016-06-09T07:01:52.186Z,960.94
2016-06-09T07:02:52.190Z,960.94
2016-06-09T07:03:52.208Z,960.97
2016-06-09T07:04:52.226Z,960.99
2016-06-09T07:05:52.230Z,960.98
2016-06-09T07:06:52.233Z,960.97
2016-06-09T07:07:52.251Z,960.97
2016-06-09T07:08:52.254Z,960.99
2016-06-09T07:09:52.273Z,960.98
2016-06-09T07:10:52.277Z,960.95
2016-06-09T07:11:52.295Z,961.04
2016-06-09T07:12:52.298Z,960.96
2016-06-09T07:13:52.316Z,960.95
2016-06-09T07:14:52.320Z,961.03
2016-06-09T07:15:52.338Z,961.02
2016-06-09T07:16:52.342Z,960.99
2016-06-09T07:17:52.360Z,961.01
2016-06-09T07:18:52.379Z,961
2016-06-09T07:19:52.898Z,961
2016-06-09T07:20:52.385Z,961.03
2016-06-09T07:21:52.404Z,961.05
2016-06-09T07:22:52.407Z,961.03
2016-06-09T07:23:52.425Z,961.01
2016-06-09T07:24:52.428Z,961.03
2016-06-09T07:25:52.432Z,961.01
2016-06-09T07:26:52.451Z,961.03
2016-06-09T07:27:52.454Z,961.05
2016-06-09T07:28:52.472Z,961.02
2016-06-09T07:29:52.491Z,961.06
2016-06-09T07:30:52.494Z,961.06
2016-06-09T07:31:52.497Z,961.07
2016-06-09T07:32:52.500Z,961.07
2016-06-09T07:33:53.502Z,961.09
2016-06-09T07:34:52.866Z,961.05
2016-06-09T07:35:52.556Z,961.05
2016-06-09T07:36:52.559Z,961.07
2016-06-09T07:37:52.562Z,961.07
2016-06-09T07:38:52.565Z,961.07
2016-06-09T07:39:52.584Z,961.04
2016-06-09T07:40:52.587Z,961.07
2016-06-09T07:41:52.605Z,961.03
2016-06-09T07:42:52.609Z,961.05
2016-06-09T07:43:52.627Z,961.03
2016-06-09T07:44:52.631Z,961.07
2016-06-09T07:45:52.650Z,961.07
2016-06-09T07:46:52.653Z,961.1
2016-06-09T07:47:52.671Z,961.07
2016-06-09T07:48:52.674Z,961.08
2016-06-09T07:49:52.693Z,961.11
2016-06-09T07:50:52.696Z,961.08
2016-06-09T07:51:52.716Z,961.09
2016-06-09T07:52:52.718Z,961.1
2016-06-09T07:53:52.721Z,961.12
2016-06-09T07:54:52.739Z,961.09
2016-06-09T07:55:52.743Z,961.1
2016-06-09T07:56:52.762Z,961.12
2016-06-09T07:57:52.765Z,961.11
2016-06-09T07:58:52.782Z,961.11
2016-06-09T07:59:52.786Z,961.09
2016-06-09T08:00:52.805Z,961.1
2016-06-09T08:01:52.808Z,961.12
2016-06-09T08:02:52.827Z,961.09
2016-06-09T08:03:52.845Z,961.08
2016-06-09T08:04:52.848Z,961.11
2016-06-09T08:05:52.993Z,961.15
2016-06-09T08:06:52.870Z,961.11
2016-06-09T08:07:52.874Z,961.11
2016-06-09T08:08:52.893Z,961.12
2016-06-09T08:09:52.895Z,961.08
2016-06-09T08:10:52.914Z,961.1
2016-06-09T08:11:52.933Z,961.15
2016-06-09T08:12:52.935Z,961.13
2016-06-09T08:13:52.954Z,961.14
2016-06-09T08:14:52.956Z,961.12
2016-06-09T08:15:52.960Z,961.12
2016-06-09T08:16:52.979Z,961.13
2016-06-09T08:17:52.998Z,961.12
2016-06-09T08:18:53.001Z,961.14
2016-06-09T08:19:53.020Z,961.1
2016-06-09T08:20:53.022Z,961.1
2016-06-09T08:21:53.026Z,961.09
2016-06-09T08:22:53.044Z,961.12
2016-06-09T08:23:53.064Z,961.11
2016-06-09T08:24:53.069Z,961.11
2016-06-09T08:25:53.129Z,961.1
2016-06-09T08:26:53.175Z,961.11
2016-06-09T08:27:53.220Z,961.12
2016-06-09T08:28:53.283Z,961.11
2016-06-09T08:29:53.342Z,961.07
2016-06-09T08:30:53.360Z,961.08
2016-06-09T08:31:53.379Z,961.07
2016-06-09T08:32:53.413Z,961.06
2016-06-09T08:33:53.431Z,961.02
2016-06-09T08:34:53.465Z,961.04
2016-06-09T08:35:53.505Z,961.06
2016-06-09T08:36:53.498Z,961.03
2016-06-09T08:37:53.506Z,961.02
2016-06-09T08:38:54.046Z,961.07
2016-06-09T08:39:53.538Z,961.04
2016-06-09T08:40:53.559Z,961.04
2016-06-09T08:41:53.580Z,961.02
2016-06-09T08:42:53.585Z,961.03
2016-06-09T08:43:53.590Z,960.97
2016-06-09T08:44:53.610Z,960.99
2016-06-09T08:45:53.614Z,960.95
2016-06-09T08:46:53.633Z,960.94
2016-06-09T08:47:53.637Z,960.97
2016-06-09T08:48:53.641Z,960.91
2016-06-09T08:49:53.661Z,960.92
2016-06-09T08:50:53.680Z,960.9
2016-06-09T08:51:53.698Z,960.88
2016-06-09T08:52:53.687Z,960.88
2016-06-09T08:53:53.706Z,960.92
2016-06-09T08:54:53.725Z,960.92
2016-06-09T08:55:53.729Z,960.9
2016-06-09T08:56:53.747Z,960.86
2016-06-09T08:57:53.751Z,960.87
2016-06-09T08:58:53.754Z,960.89
2016-06-09T08:59:53.802Z,960.85
2016-06-09T09:00:53.790Z,960.9
2016-06-09T09:01:53.793Z,960.86
2016-06-09T09:02:53.796Z,960.86
2016-06-09T09:03:53.814Z,960.89
2016-06-09T09:04:54.678Z,960.85
2016-06-09T09:05:53.837Z,960.88
2016-06-09T09:06:53.840Z,960.9
2016-06-09T09:07:53.859Z,960.89
2016-06-09T09:08:53.862Z,960.9
2016-06-09T09:09:53.880Z,960.89
2016-06-09T09:10:53.900Z,960.91
2016-06-09T09:11:53.902Z,960.92
2016-06-09T09:12:53.922Z,960.96
2016-06-09T09:13:53.925Z,960.92
2016-06-09T09:14:53.943Z,960.99
2016-06-09T09:15:53.945Z,960.94
2016-06-09T09:16:53.965Z,960.96
2016-06-09T09:17:53.968Z,961
2016-06-09T09:18:53.971Z,961.02
2016-06-09T09:19:53.989Z,961.03
2016-06-09T09:20:54.914Z,961.02
2016-06-09T09:21:54.011Z,960.98
2016-06-09T09:22:54.014Z,961.03
2016-06-09T09:23:54.033Z,961.02
2016-06-09T09:24:54.051Z,961.03
2016-06-09T09:25:54.054Z,961.1
2016-06-09T09:26:54.073Z,961.06
2016-06-09T09:27:54.077Z,961.1
2016-06-09T09:28:54.095Z,961.08
2016-06-09T09:29:54.098Z,961.09
2016-06-09T09:30:54.102Z,961.1
2016-06-09T09:31:54.119Z,961.12
2016-06-09T09:32:54.138Z,961.12
2016-06-09T09:33:54.142Z,961.1
2016-06-09T09:34:54.160Z,961.13
2016-06-09T09:35:54.429Z,961.1
2016-06-09T09:36:54.166Z,961.11
2016-06-09T09:37:54.186Z,961.09
2016-06-09T09:38:54.204Z,961.04
2016-06-09T09:39:54.207Z,961.1
2016-06-09T09:40:54.225Z,961.15
2016-06-09T09:41:54.229Z,961.12
2016-06-09T09:42:54.247Z,961.11
2016-06-09T09:43:54.251Z,961.15
2016-06-09T09:44:54.270Z,961.16
2016-06-09T09:45:54.273Z,961.14
2016-06-09T09:46:54.291Z,961.16
2016-06-09T09:47:54.293Z,961.16
2016-06-09T09:48:54.313Z,961.15
2016-06-09T09:49:54.316Z,961.2
2016-06-09T09:50:54.335Z,961.18
2016-06-09T09:51:54.338Z,961.22
2016-06-09T09:52:54.356Z,961.19
2016-06-09T09:53:54.359Z,961.19
2016-06-09T09:54:54.379Z,961.23
2016-06-09T09:55:54.382Z,961.25
2016-06-09T09:56:54.399Z,961.24
2016-06-09T09:57:54.403Z,961.27
2016-06-09T09:58:54.421Z,961.26
2016-06-09T09:59:54.425Z,961.29
2016-06-09T10:00:54.444Z,961.26
2016-06-09T10:01:54.447Z,961.3
2016-06-09T10:02:54.465Z,961.28
2016-06-09T10:03:54.468Z,961.3
2016-06-09T10:04:54.487Z,961.27
2016-06-09T10:05:54.490Z,961.27
2016-06-09T10:06:54.508Z,961.22
2016-06-09T10:07:54.511Z,961.24
2016-06-09T10:08:54.531Z,961.24
2016-06-09T10:09:54.549Z,961.21
2016-06-09T10:10:54.553Z,961.19
2016-06-09T10:11:54.556Z,961.25
2016-06-09T10:12:54.574Z,961.24
2016-06-09T10:13:54.577Z,961.27
2016-06-09T10:14:54.596Z,961.27
2016-06-09T10:15:54.599Z,961.27
2016-06-09T10:16:54.618Z,961.29
2016-06-09T10:17:54.621Z,961.25
2016-06-09T10:18:54.639Z,961.28
2016-06-09T10:19:54.642Z,961.27
2016-06-09T10:20:54.662Z,961.29
2016-06-09T10:21:54.664Z,961.28
2016-06-09T10:22:54.683Z,961.31
2016-06-09T10:23:54.702Z,961.27
2016-06-09T10:24:54.704Z,961.29
2016-06-09T10:25:54.723Z,961.28
2016-06-09T10:26:54.727Z,961.31
2016-06-09T10:27:54.745Z,961.31
2016-06-09T10:28:54.748Z,961.29
2016-06-09T10:29:54.767Z,961.31
2016-06-09T10:30:54.771Z,961.28
2016-06-09T10:31:54.789Z,961.29
2016-06-09T10:32:54.792Z,961.26
2016-06-09T10:33:54.810Z,961.3
2016-06-09T10:34:54.813Z,961.32
2016-06-09T10:35:55.208Z,961.28
2016-06-09T10:36:54.835Z,961.28
2016-06-09T10:37:54.853Z,961.29
2016-06-09T10:38:54.856Z,961.27
2016-06-09T10:39:54.876Z,961.25
2016-06-09T10:40:54.879Z,961.25
2016-06-09T10:41:54.898Z,961.27
2016-06-09T10:42:54.901Z,961.29
2016-06-09T10:43:54.919Z,961.26
2016-06-09T10:44:54.922Z,961.26
2016-06-09T10:45:54.942Z,961.28
2016-06-09T10:46:54.944Z,961.28
2016-06-09T10:47:54.963Z,961.24
2016-06-09T10:48:54.967Z,961.27
2016-06-09T10:49:54.984Z,961.29
2016-06-09T10:50:54.988Z,961.28
2016-06-09T10:51:55.007Z,961.31
2016-06-09T10:52:55.010Z,961.3
2016-06-09T10:53:55.028Z,961.31
2016-06-09T10:54:55.046Z,961.28
2016-06-09T10:55:55.050Z,961.3
2016-06-09T10:56:55.053Z,961.29
2016-06-09T10:57:55.072Z,961.29
2016-06-09T10:58:55.075Z,961.31
2016-06-09T10:59:55.094Z,961.31
2016-06-09T11:00:55.096Z,961.33
2016-06-09T11:02:01.038Z,961.32
2016-06-09T11:02:55.118Z,961.32
2016-06-09T11:03:55.138Z,961.31
2016-06-09T11:04:55.141Z,961.3
2016-06-09T11:05:55.158Z,961.32
2016-06-09T11:06:55.178Z,961.35
2016-06-09T11:07:55.181Z,961.34
2016-06-09T11:08:55.184Z,961.34
2016-06-09T11:09:55.202Z,961.34
2016-06-09T11:10:55.205Z,961.34
2016-06-09T11:11:55.224Z,961.34
2016-06-09T11:12:55.243Z,961.33
2016-06-09T11:13:55.246Z,961.34
2016-06-09T11:14:55.264Z,961.34
2016-06-09T11:15:55.267Z,961.39
2016-06-09T11:16:55.286Z,961.34
2016-06-09T11:17:55.289Z,961.36
2016-06-09T11:18:55.309Z,961.38
2016-06-09T11:19:55.311Z,961.41
2016-06-09T11:20:55.330Z,961.38
2016-06-09T11:21:55.333Z,961.38
2016-06-09T11:22:55.352Z,961.38
2016-06-09T11:24:11.730Z,961.4
2016-06-09T11:24:55.373Z,961.36
2016-06-09T11:25:55.392Z,961.37
2016-06-09T11:26:55.395Z,961.38
2016-06-09T11:27:55.399Z,961.35
2016-06-09T11:28:55.417Z,961.39
2016-06-09T11:29:55.421Z,961.38
2016-06-09T11:30:55.438Z,961.35
2016-06-09T11:31:55.441Z,961.35
2016-06-09T11:32:55.461Z,961.37
2016-06-09T11:33:55.480Z,961.33
2016-06-09T11:34:55.482Z,961.32
2016-06-09T11:35:55.486Z,961.34
2016-06-09T11:36:55.520Z,961.32
2016-06-09T11:37:55.523Z,961.31
2016-06-09T11:38:55.526Z,961.28
2016-06-09T11:39:55.529Z,961.29
2016-06-09T11:40:55.548Z,961.28
2016-06-09T11:41:55.566Z,961.27
2016-06-09T11:42:55.570Z,961.28
2016-06-09T11:43:55.589Z,961.28
2016-06-09T11:44:55.592Z,961.27
2016-06-09T11:45:55.610Z,961.29
2016-06-09T11:46:55.613Z,961.29
2016-06-09T11:47:55.632Z,961.28
2016-06-09T11:48:55.634Z,961.31
2016-06-09T11:49:55.654Z,961.29
2016-06-09T11:50:56.453Z,961.3
2016-06-09T11:51:56.191Z,961.29
2016-06-09T11:52:55.678Z,961.29
2016-06-09T11:53:55.698Z,961.27
2016-06-09T11:54:55.715Z,961.28
2016-06-09T11:55:55.719Z,961.28
2016-06-09T11:56:55.721Z,961.27
2016-06-09T11:57:55.741Z,961.31
2016-06-09T11:58:55.760Z,961.26
2016-06-09T11:59:55.762Z,961.27
2016-06-09T12:00:55.781Z,961.3
2016-06-09T12:01:55.784Z,961.3
2016-06-09T12:02:55.803Z,961.24
2016-06-09T12:03:55.822Z,961.26
2016-06-09T12:04:55.825Z,961.25
2016-06-09T12:05:55.828Z,961.31
2016-06-09T12:06:55.862Z,961.33
2016-06-09T12:07:55.865Z,961.34
2016-06-09T12:08:55.868Z,961.35
2016-06-09T12:09:55.871Z,961.37
2016-06-09T12:10:55.890Z,961.38
2016-06-09T12:11:55.892Z,961.41
2016-06-09T12:12:55.911Z,961.37
2016-06-09T12:13:55.930Z,961.39
2016-06-09T12:14:55.934Z,961.4
2016-06-09T12:15:55.937Z,961.37
2016-06-09T12:16:55.955Z,961.41
2016-06-09T12:17:55.974Z,961.38
2016-06-09T12:18:55.977Z,961.4
2016-06-09T12:19:55.996Z,961.38
2016-06-09T12:20:56.014Z,961.39
2016-06-09T12:21:56.017Z,961.41
2016-06-09T12:22:56.020Z,961.44
2016-06-09T12:23:56.040Z,961.39
2016-06-09T12:24:56.042Z,961.39
2016-06-09T12:25:56.061Z,961.39
2016-06-09T12:26:56.064Z,961.41
2016-06-09T12:27:56.082Z,961.38
2016-06-09T12:28:56.086Z,961.42
2016-06-09T12:29:56.105Z,961.39
2016-06-09T12:30:56.123Z,961.4